createdAt,value
2023-05-12T00:00:53.001Z,19.19
2023-05-12T00:01:52.987Z,19.27
2023-05-12T00:02:53.035Z,19.30
2023-05-12T00:03:53.104Z,19.31
2023-05-12T00:04:53.047Z,19.30
2023-05-12T00:05:52.938Z,19.34
2023-05-12T00:06:52.941Z,19.26
2023-05-12T00:07:52.936Z,19.33
2023-05-12T00:08:52.891Z,19.27
2023-05-12T00:09:52.884Z,19.26
2023-05-12T00:10:52.890Z,19.27
2023-05-12T00:11:52.879Z,19.30
2023-05-12T00:12:52.883Z,19.33
2023-05-12T00:13:52.881Z,19.34
2023-05-12T00:14:52.860Z,19.36
2023-05-12T00:15:52.892Z,19.33
2023-05-12T00:16:52.973Z,19.29
2023-05-12T00:17:52.855Z,19.29
2023-05-12T00:18:52.822Z,19.27
2023-05-12T00:19:52.774Z,19.44
2023-05-12T00:20:52.786Z,19.37
2023-05-12T00:21:52.765Z,19.31
2023-05-12T00:22:52.738Z,19.31
2023-05-12T00:23:52.742Z,19.47
2023-05-12T00:24:52.741Z,19.30
2023-05-12T00:25:52.716Z,19.40
2023-05-12T00:26:52.698Z,19.29
2023-05-12T00:27:52.722Z,19.40
2023-05-12T00:28:52.695Z,19.31
2023-05-12T00:29:52.688Z,19.29
2023-05-12T00:30:52.661Z,19.30
2023-05-12T00:31:52.732Z,19.34
2023-05-12T00:32:52.691Z,19.33
2023-05-12T00:33:52.649Z,19.27
2023-05-12T00:34:52.627Z,19.27
2023-05-12T00:35:52.614Z,19.31
2023-05-12T00:36:52.591Z,19.24
2023-05-12T00:37:52.579Z,19.22
2023-05-12T00:38:52.585Z,19.12
2023-05-12T00:39:52.584Z,19.09
2023-05-12T00:40:52.571Z,19.04
2023-05-12T00:41:52.528Z,18.98
2023-05-12T00:42:52.524Z,18.96
2023-05-12T00:43:52.577Z,18.88
2023-05-12T00:44:52.518Z,18.86
2023-05-12T00:45:52.548Z,18.80
2023-05-12T00:46:52.499Z,18.74
2023-05-12T00:47:52.559Z,18.80
2023-05-12T00:48:52.460Z,18.71
2023-05-12T00:49:52.462Z,18.81
2023-05-12T00:50:52.491Z,18.83
2023-05-12T00:51:52.434Z,18.80
2023-05-12T00:52:52.448Z,18.78
2023-05-12T00:53:52.440Z,18.70
2023-05-12T00:54:52.391Z,18.65
2023-05-12T00:55:52.455Z,18.59
2023-05-12T00:56:52.378Z,18.68
2023-05-12T00:57:52.367Z,18.55
2023-05-12T00:58:52.363Z,18.66
2023-05-12T00:59:52.386Z,18.71
2023-05-12T01:00:52.338Z,18.70
2023-05-12T01:01:52.354Z,18.62
2023-05-12T01:02:52.380Z,18.65
2023-05-12T01:03:52.329Z,18.60
2023-05-12T01:04:52.295Z,18.66
2023-05-12T01:05:52.303Z,18.66
2023-05-12T01:06:52.262Z,18.71
2023-05-12T01:07:52.251Z,18.60
2023-05-12T01:08:52.247Z,18.74
2023-05-12T01:09:52.234Z,18.65
2023-05-12T01:10:52.257Z,18.65
2023-05-12T01:11:52.252Z,18.45
2023-05-12T01:12:52.216Z,18.44
2023-05-12T01:13:52.231Z,18.62
2023-05-12T01:14:52.177Z,18.70
2023-05-12T01:15:52.178Z,18.62
2023-05-12T01:16:52.188Z,18.62
2023-05-12T01:17:52.293Z,18.66
2023-05-12T01:18:52.150Z,18.75
2023-05-12T01:19:52.151Z,18.73
2023-05-12T01:20:52.168Z,18.77
2023-05-12T01:21:52.104Z,18.71
2023-05-12T01:22:52.075Z,18.75
2023-05-12T01:23:52.094Z,18.84
2023-05-12T01:24:52.094Z,18.62
2023-05-12T01:25:52.044Z,18.63
2023-05-12T01:26:52.067Z,18.68
2023-05-12T01:27:52.052Z,18.62
2023-05-12T01:28:52.030Z,18.71
2023-05-12T01:29:52.033Z,18.73
2023-05-12T01:30:52.077Z,18.59
2023-05-12T01:31:51.984Z,18.56
2023-05-12T01:32:52.017Z,18.52
2023-05-12T01:33:51.961Z,18.49
2023-05-12T01:34:51.949Z,18.59
2023-05-12T01:35:51.964Z,18.52
2023-05-12T01:36:51.946Z,18.53
2023-05-12T01:37:51.932Z,18.47
2023-05-12T01:38:51.926Z,18.52
2023-05-12T01:39:51.889Z,18.45
2023-05-12T01:40:51.902Z,18.52
2023-05-12T01:41:51.916Z,18.56
2023-05-12T01:42:51.876Z,18.55
2023-05-12T01:43:51.851Z,18.53
2023-05-12T01:44:51.860Z,18.53
2023-05-12T01:45:51.824Z,18.58
2023-05-12T01:46:51.861Z,18.53
2023-05-12T01:47:51.836Z,18.47
2023-05-12T01:48:51.789Z,18.38
2023-05-12T01:49:51.790Z,18.45
2023-05-12T01:50:51.797Z,18.40
2023-05-12T01:51:51.823Z,18.53
2023-05-12T01:52:51.770Z,18.45
2023-05-12T01:53:51.746Z,18.53
2023-05-12T01:54:51.722Z,18.53
2023-05-12T01:55:51.737Z,18.45
2023-05-12T01:56:51.740Z,18.47
2023-05-12T01:57:51.699Z,18.50
2023-05-12T01:58:51.741Z,18.47
2023-05-12T01:59:51.672Z,18.40
2023-05-12T02:00:51.687Z,18.40
2023-05-12T02:01:51.719Z,18.20
2023-05-12T02:02:51.697Z,18.33
2023-05-12T02:03:51.739Z,18.25
2023-05-12T02:04:51.640Z,18.20
2023-05-12T02:05:51.622Z,18.15
2023-05-12T02:06:51.592Z,18.13
2023-05-12T02:07:51.618Z,18.10
2023-05-12T02:08:51.607Z,18.07
2023-05-12T02:09:51.556Z,18.04
2023-05-12T02:10:51.568Z,18.07
2023-05-12T02:11:51.534Z,18.15
2023-05-12T02:12:51.529Z,18.08
2023-05-12T02:13:51.523Z,18.07
2023-05-12T02:14:51.499Z,18.05
2023-05-12T02:15:51.509Z,18.05
2023-05-12T02:16:51.494Z,18.00
2023-05-12T02:17:51.517Z,17.94
2023-05-12T02:18:51.529Z,17.92
2023-05-12T02:19:51.487Z,17.95
2023-05-12T02:20:51.449Z,17.94
2023-05-12T02:21:51.461Z,17.97
2023-05-12T02:22:51.421Z,17.98
2023-05-12T02:23:51.417Z,17.92
2023-05-12T02:24:51.394Z,17.92
2023-05-12T02:25:51.379Z,17.89
2023-05-12T02:26:51.384Z,17.89
2023-05-12T02:27:51.370Z,17.82
2023-05-12T02:28:51.382Z,17.87
2023-05-12T02:29:51.336Z,17.92
2023-05-12T02:30:51.337Z,17.95
2023-05-12T02:31:51.395Z,17.94
2023-05-12T02:32:51.339Z,17.90
2023-05-12T02:33:51.299Z,17.97
2023-05-12T02:34:51.321Z,17.85
2023-05-12T02:35:51.296Z,17.95
2023-05-12T02:36:51.296Z,17.94
2023-05-12T02:37:51.242Z,17.97
2023-05-12T02:38:51.245Z,17.89
2023-05-12T02:39:51.288Z,18.04
2023-05-12T02:40:51.235Z,18.00
2023-05-12T02:41:51.217Z,18.03
2023-05-12T02:42:51.223Z,18.05
2023-05-12T02:43:51.221Z,18.08
2023-05-12T02:44:51.166Z,18.08
2023-05-12T02:45:51.226Z,18.03
2023-05-12T02:46:51.147Z,18.11
2023-05-12T02:47:51.189Z,18.08
2023-05-12T02:48:51.132Z,18.07
2023-05-12T02:49:51.167Z,18.08
2023-05-12T02:50:51.124Z,17.98
2023-05-12T02:51:51.138Z,17.95
2023-05-12T02:52:51.080Z,18.01
2023-05-12T02:53:51.098Z,18.07
2023-05-12T02:54:51.061Z,18.04
2023-05-12T02:55:51.087Z,17.85
2023-05-12T02:56:51.070Z,17.87
2023-05-12T02:57:51.051Z,17.92
2023-05-12T02:58:51.112Z,18.00
2023-05-12T02:59:51.042Z,17.94
2023-05-12T03:00:59.792Z,17.92
2023-05-12T03:01:52.043Z,17.87
2023-05-12T03:02:51.112Z,17.92
2023-05-12T03:03:51.110Z,17.90
2023-05-12T03:04:50.972Z,18.00
2023-05-12T03:05:50.981Z,18.00
2023-05-12T03:06:50.940Z,18.10
2023-05-12T03:07:50.947Z,18.05
2023-05-12T03:08:50.931Z,18.11
2023-05-12T03:09:50.906Z,18.08
2023-05-12T03:10:50.905Z,18.05
2023-05-12T03:11:50.938Z,18.04
2023-05-12T03:12:50.867Z,18.05
2023-05-12T03:13:50.867Z,18.13
2023-05-12T03:14:50.862Z,18.03
2023-05-12T03:15:50.842Z,18.08
2023-05-12T03:16:50.896Z,18.13
2023-05-12T03:17:50.915Z,18.13
2023-05-12T03:18:50.836Z,18.22
2023-05-12T03:19:50.807Z,18.22
2023-05-12T03:20:50.792Z,18.22
2023-05-12T03:21:50.771Z,18.18
2023-05-12T03:22:50.772Z,18.20
2023-05-12T03:23:50.788Z,18.28
2023-05-12T03:24:50.736Z,18.28
2023-05-12T03:25:50.745Z,18.19
2023-05-12T03:26:50.734Z,18.10
2023-05-12T03:27:50.785Z,18.20
2023-05-12T03:28:50.716Z,18.23
2023-05-12T03:29:50.719Z,18.15
2023-05-12T03:30:50.690Z,18.15
2023-05-12T03:31:50.693Z,18.07
2023-05-12T03:32:50.708Z,18.13
2023-05-12T03:33:50.670Z,18.05
2023-05-12T03:34:50.656Z,18.05
2023-05-12T03:35:50.659Z,18.00
2023-05-12T03:36:50.620Z,18.10
2023-05-12T03:37:50.606Z,18.16
2023-05-12T03:38:50.606Z,18.10
2023-05-12T03:39:50.579Z,18.18
2023-05-12T03:40:50.593Z,18.20
2023-05-12T03:41:50.584Z,18.05
2023-05-12T03:42:50.535Z,18.13
2023-05-12T03:43:50.635Z,18.05
2023-05-12T03:44:50.545Z,18.07
2023-05-12T03:45:50.518Z,18.05
2023-05-12T03:46:50.682Z,18.00
2023-05-12T03:47:50.616Z,17.95
2023-05-12T03:48:50.479Z,18.03
2023-05-12T03:49:50.469Z,18.03
2023-05-12T03:50:50.494Z,18.04
2023-05-12T03:51:50.451Z,18.13
2023-05-12T03:52:50.425Z,18.08
2023-05-12T03:53:50.459Z,18.03
2023-05-12T03:54:50.413Z,18.04
2023-05-12T03:55:50.408Z,18.01
2023-05-12T03:56:50.405Z,18.07
2023-05-12T03:57:50.408Z,18.01
2023-05-12T03:58:50.381Z,18.15
2023-05-12T03:59:50.373Z,18.13
2023-05-12T04:00:50.357Z,18.07
2023-05-12T04:01:50.396Z,18.03
2023-05-12T04:02:50.434Z,18.16
2023-05-12T04:03:50.535Z,18.16
2023-05-12T04:04:50.323Z,18.10
2023-05-12T04:05:50.292Z,18.05
2023-05-12T04:06:50.281Z,18.07
2023-05-12T04:07:50.282Z,18.20
2023-05-12T04:08:50.257Z,18.20
2023-05-12T04:09:50.309Z,18.22
2023-05-12T04:10:50.242Z,18.20
2023-05-12T04:11:50.229Z,18.16
2023-05-12T04:12:50.223Z,18.16
2023-05-12T04:13:50.214Z,18.20
2023-05-12T04:14:50.201Z,18.16
2023-05-12T04:15:50.231Z,18.16
2023-05-12T04:16:50.210Z,18.16
2023-05-12T04:17:50.183Z,18.16
2023-05-12T04:18:50.287Z,18.05
2023-05-12T04:19:50.156Z,18.13
2023-05-12T04:20:50.179Z,18.11
2023-05-12T04:21:50.129Z,18.05
2023-05-12T04:22:50.144Z,18.07
2023-05-12T04:23:50.093Z,18.07
2023-05-12T04:24:50.111Z,18.01
2023-05-12T04:25:50.087Z,18.05
2023-05-12T04:26:50.074Z,18.08
2023-05-12T04:27:50.078Z,18.07
2023-05-12T04:28:50.035Z,18.08
2023-05-12T04:29:50.025Z,18.18
2023-05-12T04:30:50.030Z,18.22
2023-05-12T04:31:50.098Z,18.16
2023-05-12T04:32:50.028Z,18.10
2023-05-12T04:33:50.042Z,18.07
2023-05-12T04:34:49.989Z,18.05
2023-05-12T04:35:49.974Z,18.15
2023-05-12T04:36:49.958Z,18.08
2023-05-12T04:37:49.979Z,18.05
2023-05-12T04:38:49.938Z,18.16
2023-05-12T04:39:49.920Z,18.18
2023-05-12T04:40:49.911Z,18.20
2023-05-12T04:41:49.899Z,18.28
2023-05-12T04:42:49.905Z,18.29
2023-05-12T04:44:49.876Z,18.01
2023-05-12T04:45:49.926Z,18.18
2023-05-12T04:46:49.862Z,18.23
2023-05-12T04:47:49.898Z,18.31
2023-05-12T04:48:49.855Z,18.23
2023-05-12T04:49:49.816Z,18.22
2023-05-12T04:50:49.827Z,18.31
2023-05-12T04:51:49.802Z,18.23
2023-05-12T04:52:49.822Z,18.31
2023-05-12T04:53:49.874Z,18.25
2023-05-12T04:54:49.777Z,18.23
2023-05-12T04:55:49.753Z,18.23
2023-05-12T04:56:49.753Z,18.29
2023-05-12T04:57:49.778Z,18.16
2023-05-12T04:58:49.742Z,18.28
2023-05-12T04:59:49.716Z,18.29
2023-05-12T05:00:49.685Z,18.23
2023-05-12T05:01:49.757Z,18.20
2023-05-12T05:02:49.720Z,18.20
2023-05-12T05:03:49.777Z,18.29
2023-05-12T05:04:49.664Z,18.34
2023-05-12T05:05:49.663Z,18.26
2023-05-12T05:06:49.625Z,18.38
2023-05-12T05:07:49.620Z,18.47
2023-05-12T05:08:49.655Z,18.45
2023-05-12T05:09:49.592Z,18.35
2023-05-12T05:10:49.607Z,18.35
2023-05-12T05:11:49.606Z,18.40
2023-05-12T05:12:49.562Z,18.41
2023-05-12T05:13:49.564Z,18.43
2023-05-12T05:14:49.537Z,18.44
2023-05-12T05:15:49.600Z,18.41
2023-05-12T05:16:50.035Z,18.40
2023-05-12T05:17:49.608Z,18.44
2023-05-12T05:18:49.546Z,18.49
2023-05-12T05:19:57.841Z,18.47
2023-05-12T05:20:57.263Z,18.53
2023-05-12T05:21:50.482Z,18.52
2023-05-12T05:22:49.452Z,18.50
2023-05-12T05:23:49.470Z,18.45
2023-05-12T05:24:49.440Z,18.44
2023-05-12T05:25:49.430Z,18.43
2023-05-12T05:26:49.404Z,18.37
2023-05-12T05:27:49.416Z,18.31
2023-05-12T05:28:49.411Z,18.34
2023-05-12T05:29:49.404Z,18.28
2023-05-12T05:30:49.378Z,18.37
2023-05-12T05:31:49.374Z,18.35
2023-05-12T05:32:49.415Z,18.55
2023-05-12T05:33:49.375Z,18.52
2023-05-12T05:34:49.350Z,18.53
2023-05-12T05:35:49.322Z,18.62
2023-05-12T05:36:49.314Z,18.68
2023-05-12T05:37:49.280Z,18.74
2023-05-12T05:38:49.277Z,18.83
2023-05-12T05:39:49.262Z,18.74
2023-05-12T05:40:53.684Z,18.74
2023-05-12T05:41:50.270Z,18.75
2023-05-12T05:42:49.245Z,18.75
2023-05-12T05:43:49.219Z,18.75
2023-05-12T05:44:49.216Z,18.70
2023-05-12T05:45:49.219Z,18.77
2023-05-12T05:46:49.268Z,18.74
2023-05-12T05:47:49.198Z,18.74
2023-05-12T05:48:49.196Z,18.66
2023-05-12T05:49:49.157Z,18.55
2023-05-12T05:50:49.140Z,18.68
2023-05-12T05:51:49.151Z,18.74
2023-05-12T05:52:49.125Z,18.78
2023-05-12T05:53:49.132Z,18.83
2023-05-12T05:54:49.134Z,18.73
2023-05-12T05:55:49.103Z,18.73
2023-05-12T05:56:49.075Z,18.92
2023-05-12T05:57:49.072Z,18.84
2023-05-12T05:58:49.049Z,18.98
2023-05-12T05:59:49.061Z,19.00
2023-05-12T06:00:49.052Z,19.08
2023-05-12T06:01:49.096Z,19.18
2023-05-12T06:02:49.194Z,19.16
2023-05-12T06:03:49.130Z,19.34
2023-05-12T06:04:48.982Z,19.47
2023-05-12T06:05:49.001Z,19.36
2023-05-12T06:06:48.996Z,19.39
2023-05-12T06:07:48.961Z,19.24
2023-05-12T06:08:48.971Z,19.26
2023-05-12T06:09:48.927Z,19.15
2023-05-12T06:10:48.939Z,19.27
2023-05-12T06:11:48.919Z,19.15
2023-05-12T06:12:48.905Z,19.14
2023-05-12T06:13:49.193Z,19.19
2023-05-12T06:14:49.877Z,19.19
2023-05-12T06:15:48.867Z,19.30
2023-05-12T06:16:48.897Z,19.40
2023-05-12T06:17:48.889Z,19.52
2023-05-12T06:18:48.889Z,19.29
2023-05-12T06:19:48.840Z,19.21
2023-05-12T06:20:48.815Z,19.33
2023-05-12T06:21:48.792Z,19.36
2023-05-12T06:22:48.806Z,19.45
2023-05-12T06:23:48.820Z,19.48
2023-05-12T06:24:48.758Z,19.45
2023-05-12T06:25:48.765Z,19.45
2023-05-12T06:26:48.755Z,19.49
2023-05-12T06:27:48.774Z,19.58
2023-05-12T06:28:48.738Z,19.63
2023-05-12T06:29:48.746Z,19.84
2023-05-12T06:30:48.691Z,19.82
2023-05-12T06:31:48.751Z,19.79
2023-05-12T06:32:48.738Z,19.82
2023-05-12T06:33:48.699Z,19.76
2023-05-12T06:34:48.666Z,19.76
2023-05-12T06:35:48.653Z,19.64
2023-05-12T06:36:48.633Z,19.66
2023-05-12T06:37:48.643Z,19.69
2023-05-12T06:38:48.605Z,19.82
2023-05-12T06:39:48.665Z,19.95
2023-05-12T06:40:48.611Z,20.03
2023-05-12T06:41:48.579Z,20.11
2023-05-12T06:42:48.570Z,20.21
2023-05-12T06:43:48.564Z,20.21
2023-05-12T06:44:48.551Z,20.16
2023-05-12T06:45:48.557Z,20.24
2023-05-12T06:46:48.619Z,20.07
2023-05-12T06:47:48.561Z,20.04
2023-05-12T06:48:48.512Z,20.19
2023-05-12T06:49:48.502Z,20.16
2023-05-12T06:50:48.511Z,20.21
2023-05-12T06:51:48.488Z,20.32
2023-05-12T06:52:48.516Z,20.39
2023-05-12T06:53:48.442Z,20.44
2023-05-12T06:54:48.428Z,20.34
2023-05-12T06:55:56.689Z,20.65
2023-05-12T06:56:48.416Z,20.62
2023-05-12T06:57:48.494Z,20.63
2023-05-12T06:58:48.386Z,20.65
2023-05-12T06:59:48.432Z,20.55
2023-05-12T07:00:48.371Z,20.75
2023-05-12T07:01:48.407Z,20.84
2023-05-12T07:02:48.398Z,20.95
2023-05-12T07:03:48.394Z,20.92
2023-05-12T07:04:48.325Z,20.99
2023-05-12T07:05:48.345Z,21.00
2023-05-12T07:06:48.309Z,20.92
2023-05-12T07:07:48.311Z,20.88
2023-05-12T07:08:48.315Z,21.05
2023-05-12T07:09:48.307Z,21.02
2023-05-12T07:10:48.256Z,20.92
2023-05-12T07:11:48.274Z,20.84
2023-05-12T07:12:48.250Z,20.90
2023-05-12T07:13:48.225Z,20.87
2023-05-12T07:14:48.269Z,20.82
2023-05-12T07:15:48.212Z,20.92
2023-05-12T07:16:48.186Z,20.70
2023-05-12T07:17:48.202Z,20.81
2023-05-12T07:18:48.222Z,20.82
2023-05-12T07:19:48.159Z,20.85
2023-05-12T07:20:48.168Z,20.84
2023-05-12T07:21:48.130Z,20.70
2023-05-12T07:22:48.187Z,20.88
2023-05-12T07:23:48.114Z,20.72
2023-05-12T07:24:48.125Z,20.85
2023-05-12T07:25:48.098Z,20.82
2023-05-12T07:26:48.122Z,21.00
2023-05-12T07:27:48.159Z,21.05
2023-05-12T07:28:48.062Z,21.03
2023-05-12T07:29:48.127Z,21.14
2023-05-12T07:30:48.050Z,21.17
2023-05-12T07:31:48.082Z,21.12
2023-05-12T07:32:48.074Z,21.05
2023-05-12T07:33:48.002Z,21.18
2023-05-12T07:34:47.991Z,21.30
2023-05-12T07:35:48.010Z,21.36
2023-05-12T07:36:48.007Z,21.51
2023-05-12T07:37:47.975Z,21.15
2023-05-12T07:38:47.972Z,21.15
2023-05-12T07:39:47.943Z,21.24
2023-05-12T07:40:47.960Z,21.42
2023-05-12T07:41:47.929Z,21.37
2023-05-12T07:42:47.937Z,21.42
2023-05-12T07:43:48.048Z,21.55
2023-05-12T07:44:47.886Z,21.55
2023-05-12T07:45:47.874Z,21.50
2023-05-12T07:46:47.895Z,21.54
2023-05-12T07:47:47.904Z,21.72
2023-05-12T07:48:47.878Z,21.76
2023-05-12T07:49:47.864Z,21.73
2023-05-12T07:50:47.814Z,21.76
2023-05-12T07:51:47.810Z,21.76
2023-05-12T07:52:47.800Z,21.95
2023-05-12T07:53:47.809Z,21.92
2023-05-12T07:54:47.803Z,22.00
2023-05-12T07:55:47.779Z,22.13
2023-05-12T07:56:47.757Z,21.99
2023-05-12T07:57:47.742Z,22.00
2023-05-12T07:58:47.805Z,22.08
2023-05-12T07:59:47.883Z,22.07
2023-05-12T08:00:47.719Z,22.04
2023-05-12T08:01:47.726Z,22.10
2023-05-12T08:02:48.074Z,22.04
2023-05-12T08:03:47.774Z,21.99
2023-05-12T08:04:47.678Z,22.20
2023-05-12T08:05:47.652Z,22.28
2023-05-12T08:06:47.663Z,22.36
2023-05-12T08:07:47.648Z,22.45
2023-05-12T08:08:47.652Z,22.38
2023-05-12T08:09:47.612Z,22.41
2023-05-12T08:10:47.610Z,22.50
2023-05-12T08:11:49.396Z,22.41
2023-05-12T08:12:47.575Z,22.35
2023-05-12T08:13:47.620Z,22.51
2023-05-12T08:14:47.553Z,22.53
2023-05-12T08:15:47.579Z,22.55
2023-05-12T08:16:47.573Z,22.59
2023-05-12T08:17:47.579Z,22.57
2023-05-12T08:18:47.545Z,22.55
2023-05-12T08:19:47.503Z,22.72
2023-05-12T08:20:47.496Z,22.62
2023-05-12T08:21:47.477Z,22.55
2023-05-12T08:22:47.484Z,22.65
2023-05-12T08:23:47.464Z,22.84
2023-05-12T08:24:47.461Z,22.90
2023-05-12T08:25:47.433Z,22.91
2023-05-12T08:26:47.463Z,22.70
2023-05-12T08:27:47.428Z,22.48
2023-05-12T08:28:47.417Z,22.43
2023-05-12T08:29:47.408Z,22.70
2023-05-12T08:30:47.411Z,22.75
2023-05-12T08:31:47.420Z,22.75
2023-05-12T08:32:47.398Z,22.80
2023-05-12T08:33:51.761Z,22.99
2023-05-12T08:34:48.337Z,22.70
2023-05-12T08:35:47.362Z,22.78
2023-05-12T08:36:47.344Z,22.84
2023-05-12T08:37:47.309Z,22.80
2023-05-12T08:38:47.308Z,22.70
2023-05-12T08:39:47.288Z,22.68
2023-05-12T08:40:47.269Z,22.75
2023-05-12T08:41:47.299Z,22.91
2023-05-12T08:42:47.267Z,22.99
2023-05-12T08:43:47.235Z,23.18
2023-05-12T08:44:47.226Z,23.21
2023-05-12T08:45:47.224Z,23.21
2023-05-12T08:46:47.242Z,23.10
2023-05-12T08:47:47.361Z,23.10
2023-05-12T08:48:47.178Z,23.31
2023-05-12T08:49:47.187Z,23.28
2023-05-12T08:50:47.191Z,23.28
2023-05-12T08:51:56.511Z,23.32
2023-05-12T08:52:48.168Z,23.43
2023-05-12T08:53:47.135Z,23.48
2023-05-12T08:54:55.449Z,23.50
2023-05-12T08:55:58.678Z,23.44
2023-05-12T08:57:47.111Z,23.68
2023-05-12T08:58:47.083Z,23.68
2023-05-12T08:59:47.074Z,23.74
2023-05-12T09:00:47.074Z,23.74
2023-05-12T09:01:47.060Z,23.74
2023-05-12T09:02:54.155Z,23.76
2023-05-12T09:03:48.228Z,23.76
2023-05-12T09:04:47.114Z,23.83
2023-05-12T09:05:46.993Z,23.92
2023-05-12T09:06:47.014Z,23.92
2023-05-12T09:07:46.981Z,23.56
2023-05-12T09:08:46.967Z,23.50
2023-05-12T09:09:46.956Z,23.51
2023-05-12T09:10:47.008Z,23.40
2023-05-12T09:11:46.929Z,23.48
2023-05-12T09:12:46.939Z,23.50
2023-05-12T09:13:46.924Z,23.51
2023-05-12T09:14:46.910Z,23.63
2023-05-12T09:15:46.895Z,23.62
2023-05-12T09:16:46.972Z,23.43
2023-05-12T09:17:46.892Z,23.44
2023-05-12T09:18:46.907Z,23.41
2023-05-12T09:19:47.131Z,23.56
2023-05-12T09:20:46.858Z,23.69
2023-05-12T09:21:46.838Z,23.69
2023-05-12T09:22:46.817Z,23.63
2023-05-12T09:23:46.808Z,23.59
2023-05-12T09:24:46.789Z,23.54
2023-05-12T09:25:46.894Z,23.46
2023-05-12T09:26:46.829Z,23.47
2023-05-12T09:27:46.762Z,23.55
2023-05-12T09:28:46.769Z,23.62
2023-05-12T09:29:58.019Z,23.69
2023-05-12T09:30:47.752Z,23.62
2023-05-12T09:31:46.757Z,23.54
2023-05-12T09:32:46.733Z,23.66
2023-05-12T09:33:46.705Z,23.78
2023-05-12T09:34:46.710Z,23.74
2023-05-12T09:35:46.940Z,23.83
2023-05-12T09:36:46.675Z,23.73
2023-05-12T09:37:46.656Z,23.77
2023-05-12T09:38:46.642Z,23.77
2023-05-12T09:39:46.679Z,23.88
2023-05-12T09:40:46.638Z,23.81
2023-05-12T09:41:46.650Z,23.74
2023-05-12T09:42:46.601Z,23.76
2023-05-12T09:43:46.592Z,23.76
2023-05-12T09:44:46.618Z,23.86
2023-05-12T09:45:46.704Z,23.87
2023-05-12T09:46:46.557Z,23.86
2023-05-12T09:47:46.602Z,23.87
2023-05-12T09:48:46.526Z,23.91
2023-05-12T09:49:46.561Z,23.88
2023-05-12T09:50:47.888Z,23.92
2023-05-12T09:51:46.630Z,23.83
2023-05-12T09:52:46.484Z,23.95
2023-05-12T09:53:46.471Z,23.92
2023-05-12T09:54:46.488Z,23.96
2023-05-12T09:55:46.636Z,23.93
2023-05-12T09:56:46.453Z,23.99
2023-05-12T09:57:46.441Z,23.88
2023-05-12T09:58:46.461Z,23.95
2023-05-12T09:59:46.428Z,24.06
2023-05-12T10:01:05.985Z,24.26
2023-05-12T10:01:47.466Z,24.20
2023-05-12T10:02:46.407Z,24.28
2023-05-12T10:03:46.404Z,24.06
2023-05-12T10:04:46.405Z,23.95
2023-05-12T10:05:46.372Z,24.08
2023-05-12T10:06:46.328Z,24.05
2023-05-12T10:07:46.472Z,24.16
2023-05-12T10:08:46.317Z,24.16
2023-05-12T10:09:46.315Z,24.08
2023-05-12T10:10:46.294Z,24.24
2023-05-12T10:11:46.299Z,24.38
2023-05-12T10:12:46.317Z,24.33
2023-05-12T10:13:46.272Z,24.45
2023-05-12T10:14:46.269Z,24.60
2023-05-12T10:15:46.272Z,24.66
2023-05-12T10:16:46.266Z,24.55
2023-05-12T10:17:46.296Z,24.65
2023-05-12T10:18:46.323Z,24.58
2023-05-12T10:19:46.211Z,24.58
2023-05-12T10:20:46.267Z,24.61
2023-05-12T10:21:46.192Z,24.60
2023-05-12T10:22:46.206Z,24.65
2023-05-12T10:23:46.210Z,24.86
2023-05-12T10:24:46.175Z,24.77
2023-05-12T10:25:46.123Z,24.74
2023-05-12T10:26:46.130Z,24.68
2023-05-12T10:27:46.127Z,24.60
2023-05-12T10:28:46.107Z,24.66
2023-05-12T10:29:46.118Z,24.55
2023-05-12T10:30:46.087Z,24.63
2023-05-12T10:31:46.134Z,24.53
2023-05-12T10:32:46.107Z,24.55
2023-05-12T10:33:46.927Z,24.55
2023-05-12T10:34:54.144Z,24.57
2023-05-12T10:35:47.784Z,24.66
2023-05-12T10:36:46.015Z,24.65
2023-05-12T10:37:46.037Z,24.74
2023-05-12T10:38:46.016Z,24.95
2023-05-12T10:39:46.074Z,24.89
2023-05-12T10:40:45.964Z,24.73
2023-05-12T10:41:45.958Z,24.70
2023-05-12T10:42:45.950Z,24.78
2023-05-12T10:43:45.943Z,24.77
2023-05-12T10:44:45.944Z,24.98
2023-05-12T10:45:45.907Z,25.07
2023-05-12T10:46:45.952Z,25.10
2023-05-12T10:47:45.939Z,24.96
2023-05-12T10:48:45.879Z,24.92
2023-05-12T10:49:45.886Z,24.95
2023-05-12T10:50:45.882Z,25.11
2023-05-12T10:51:45.843Z,25.22
2023-05-12T10:52:45.844Z,25.47
2023-05-12T10:53:50.058Z,25.35
2023-05-12T10:54:46.817Z,25.31
2023-05-12T10:55:46.298Z,25.32
2023-05-12T10:56:45.973Z,25.48
2023-05-12T10:57:46.154Z,25.65
2023-05-12T10:58:46.006Z,25.63
2023-05-12T10:59:46.008Z,25.58
2023-05-12T11:00:46.001Z,25.50
2023-05-12T11:01:46.518Z,25.41
2023-05-12T11:02:46.363Z,25.28
2023-05-12T11:03:46.140Z,25.25
2023-05-12T11:04:45.877Z,25.25
2023-05-12T11:05:46.093Z,25.33
2023-05-12T11:06:46.952Z,25.22
2023-05-12T11:07:45.890Z,25.08
2023-05-12T11:08:46.196Z,25.08
2023-05-12T11:10:46.690Z,25.14
2023-05-12T11:11:45.944Z,25.18
2023-05-12T11:12:45.623Z,25.06
2023-05-12T11:13:45.639Z,25.11
2023-05-12T11:14:45.606Z,25.21
2023-05-12T11:15:45.582Z,25.06
2023-05-12T11:16:45.655Z,25.11
2023-05-12T11:17:45.644Z,24.99
2023-05-12T11:18:45.618Z,25.13
2023-05-12T11:19:45.568Z,25.21
2023-05-12T11:20:45.529Z,24.96
2023-05-12T11:21:45.523Z,25.10
2023-05-12T11:22:45.513Z,25.13
2023-05-12T11:23:45.504Z,25.25
2023-05-12T11:24:45.494Z,25.26
2023-05-12T11:25:45.542Z,25.36
2023-05-12T11:26:45.499Z,25.46
2023-05-12T11:27:45.519Z,25.47
2023-05-12T11:28:45.447Z,25.33
2023-05-12T11:29:45.434Z,25.38
2023-05-12T11:30:45.434Z,25.21
2023-05-12T11:31:45.476Z,25.17
2023-05-12T11:32:45.467Z,25.22
2023-05-12T11:33:45.419Z,25.38
2023-05-12T11:34:45.388Z,25.31
2023-05-12T11:35:45.390Z,25.22
2023-05-12T11:36:45.383Z,24.98
2023-05-12T11:37:45.349Z,24.89
2023-05-12T11:38:45.370Z,25.11
2023-05-12T11:39:45.346Z,25.17
2023-05-12T11:40:45.337Z,25.14
2023-05-12T11:41:45.308Z,25.18
2023-05-12T11:42:45.298Z,25.28
2023-05-12T11:43:45.337Z,25.21
2023-05-12T11:44:45.289Z,25.29
2023-05-12T11:45:45.298Z,25.35
2023-05-12T11:46:45.263Z,25.46
2023-05-12T11:47:45.304Z,25.44
2023-05-12T11:48:45.235Z,25.65
2023-05-12T11:49:45.219Z,25.51
2023-05-12T11:50:45.208Z,25.72
2023-05-12T11:51:45.199Z,25.81
2023-05-12T11:52:45.200Z,25.69
2023-05-12T11:53:45.213Z,25.65
2023-05-12T11:54:45.170Z,25.63
2023-05-12T11:55:45.154Z,25.65
2023-05-12T11:56:45.143Z,25.47
2023-05-12T11:57:45.138Z,25.40
2023-05-12T11:58:45.160Z,25.47
2023-05-12T11:59:45.142Z,25.54
2023-05-12T12:00:45.122Z,25.55
2023-05-12T12:01:45.093Z,25.80
2023-05-12T12:02:45.151Z,25.78
2023-05-12T12:03:45.169Z,25.77
2023-05-12T12:04:45.082Z,25.60
2023-05-12T12:05:45.069Z,25.68
2023-05-12T12:06:45.065Z,25.68
2023-05-12T12:07:45.027Z,25.80
2023-05-12T12:08:45.035Z,25.81
2023-05-12T12:09:45.002Z,25.87
2023-05-12T12:10:45.027Z,25.90
2023-05-12T12:11:45.000Z,25.77
2023-05-12T12:12:44.986Z,25.60
2023-05-12T12:13:44.992Z,25.51
2023-05-12T12:14:44.958Z,25.54
2023-05-12T12:15:45.051Z,25.50
2023-05-12T12:16:44.933Z,25.50
2023-05-12T12:17:45.009Z,25.46
2023-05-12T12:18:44.962Z,25.46
2023-05-12T12:19:44.900Z,25.31
2023-05-12T12:20:44.886Z,25.11
2023-05-12T12:21:44.881Z,25.11
2023-05-12T12:22:44.869Z,24.99
2023-05-12T12:23:50.769Z,24.95
2023-05-12T12:24:45.846Z,24.96
2023-05-12T12:25:44.845Z,25.03
2023-05-12T12:26:44.844Z,25.14
2023-05-12T12:27:44.838Z,25.11
2023-05-12T12:28:44.799Z,25.03
2023-05-12T12:29:44.795Z,25.06
2023-05-12T12:30:44.788Z,25.18
2023-05-12T12:31:44.870Z,25.23
2023-05-12T12:32:44.828Z,25.31
2023-05-12T12:33:44.878Z,25.33
2023-05-12T12:34:44.739Z,25.29
2023-05-12T12:35:44.731Z,25.35
2023-05-12T12:36:44.717Z,25.40
2023-05-12T12:37:44.701Z,25.48
2023-05-12T12:38:44.695Z,25.44
2023-05-12T12:39:44.702Z,25.59
2023-05-12T12:40:44.675Z,25.53
2023-05-12T12:41:44.689Z,25.53
2023-05-12T12:42:44.689Z,25.60
2023-05-12T12:43:44.650Z,25.50
2023-05-12T12:44:44.628Z,25.55
2023-05-12T12:45:44.636Z,25.51
2023-05-12T12:46:44.685Z,25.46
2023-05-12T12:47:44.743Z,25.41
2023-05-12T12:48:44.626Z,25.53
2023-05-12T12:49:44.574Z,25.53
2023-05-12T12:50:44.562Z,25.66
2023-05-12T12:51:46.629Z,25.62
2023-05-12T12:52:44.550Z,25.72
2023-05-12T12:53:44.547Z,25.83
2023-05-12T12:54:44.565Z,25.83
2023-05-12T12:55:44.526Z,25.84